sensor_id;sensor_type;location;lat;lon;timestamp;temperature;humidity
45233;DHT22;30969;51.052;17.056;2023-03-20T00:00:49;13.80;50.70
45233;DHT22;30969;51.052;17.056;2023-03-20T00:05:56;13.70;50.60
45233;DHT22;30969;51.052;17.056;2023-03-20T00:11:01;13.70;50.70
45233;DHT22;30969;51.052;17.056;2023-03-20T00:16:10;13.70;50.70
45233;DHT22;30969;51.052;17.056;2023-03-20T00:21:16;13.70;50.60
45233;DHT22;30969;51.052;17.056;2023-03-20T00:26:23;13.70;50.60
45233;DHT22;30969;51.052;17.056;2023-03-20T00:31:30;13.70;50.70
45233;DHT22;30969;51.052;17.056;2023-03-20T00:36:34;13.60;51.10
45233;DHT22;30969;51.052;17.056;2023-03-20T00:41:41;13.50;51.30
45233;DHT22;30969;51.052;17.056;2023-03-20T00:46:49;13.50;51.70
45233;DHT22;30969;51.052;17.056;2023-03-20T00:51:53;13.50;52.20
45233;DHT22;30969;51.052;17.056;2023-03-20T00:56:59;13.50;52.40
45233;DHT22;30969;51.052;17.056;2023-03-20T01:02:04;13.50;52.50
45233;DHT22;30969;51.052;17.056;2023-03-20T01:07:13;13.50;53.40
45233;DHT22;30969;51.052;17.056;2023-03-20T01:12:17;13.50;53.60
45233;DHT22;30969;51.052;17.056;2023-03-20T01:17:24;13.50;53.90
45233;DHT22;30969;51.052;17.056;2023-03-20T01:22:28;13.60;53.80
45233;DHT22;30969;51.052;17.056;2023-03-20T01:27:31;13.60;54.70
45233;DHT22;30969;51.052;17.056;2023-03-20T01:32:36;13.50;55.90
45233;DHT22;30969;51.052;17.056;2023-03-20T01:37:40;13.40;56.30
45233;DHT22;30969;51.052;17.056;2023-03-20T01:42:43;13.30;56.90
45233;DHT22;30969;51.052;17.056;2023-03-20T01:47:48;13.30;56.30
45233;DHT22;30969;51.052;17.056;2023-03-20T01:53:05;13.40;56.50
45233;DHT22;30969;51.052;17.056;2023-03-20T01:58:14;13.30;57.70
45233;DHT22;30969;51.052;17.056;2023-03-20T02:03:21;13.20;58.50
45233;DHT22;30969;51.052;17.056;2023-03-20T02:08:28;13.10;59.50
45233;DHT22;30969;51.052;17.056;2023-03-20T02:13:32;13.10;60.90
45233;DHT22;30969;51.052;17.056;2023-03-20T02:18:39;13.20;60.30
45233;DHT22;30969;51.052;17.056;2023-03-20T02:35:53;13.30;62.10
45233;DHT22;30969;51.052;17.056;2023-03-20T02:41:11;13.30;61.90
45233;DHT22;30969;51.052;17.056;2023-03-20T02:46:18;13.40;61.90
45233;DHT22;30969;51.052;17.056;2023-03-20T02:51:32;13.40;62.90
45233;DHT22;30969;51.052;17.056;2023-03-20T02:56:45;13.40;62.20
45233;DHT22;30969;51.052;17.056;2023-03-20T03:01:57;13.40;64.00
45233;DHT22;30969;51.052;17.056;2023-03-20T03:07:06;13.30;64.50
45233;DHT22;30969;51.052;17.056;2023-03-20T03:12:17;13.20;64.40
45233;DHT22;30969;51.052;17.056;2023-03-20T03:17:24;13.20;64.60
45233;DHT22;30969;51.052;17.056;2023-03-20T03:22:29;13.20;64.90
45233;DHT22;30969;51.052;17.056;2023-03-20T03:27:36;13.20;64.60
45233;DHT22;30969;51.052;17.056;2023-03-20T03:32:44;13.30;64.40
45233;DHT22;30969;51.052;17.056;2023-03-20T03:37:55;13.30;65.00
45233;DHT22;30969;51.052;17.056;2023-03-20T03:43:07;13.30;64.70
45233;DHT22;30969;51.052;17.056;2023-03-20T03:48:17;13.30;64.90
45233;DHT22;30969;51.052;17.056;2023-03-20T03:53:24;13.30;65.10
45233;DHT22;30969;51.052;17.056;2023-03-20T03:58:33;13.30;65.80
45233;DHT22;30969;51.052;17.056;2023-03-20T04:03:44;13.20;65.90
45233;DHT22;30969;51.052;17.056;2023-03-20T04:08:48;13.30;65.30
45233;DHT22;30969;51.052;17.056;2023-03-20T04:13:54;13.40;64.60
45233;DHT22;30969;51.052;17.056;2023-03-20T04:18:58;13.40;64.50
45233;DHT22;30969;51.052;17.056;2023-03-20T04:24:01;13.50;64.40
45233;DHT22;30969;51.052;17.056;2023-03-20T04:29:06;13.50;65.10
45233;DHT22;30969;51.052;17.056;2023-03-20T04:34:10;13.30;66.20
45233;DHT22;30969;51.052;17.056;2023-03-20T04:39:14;13.30;67.00
45233;DHT22;30969;51.052;17.056;2023-03-20T04:44:19;13.30;67.40
45233;DHT22;30969;51.052;17.056;2023-03-20T04:49:22;13.30;67.40
45233;DHT22;30969;51.052;17.056;2023-03-20T04:54:26;13.30;68.50
45233;DHT22;30969;51.052;17.056;2023-03-20T04:59:31;13.20;68.40
45233;DHT22;30969;51.052;17.056;2023-03-20T05:04:35;13.20;68.80
45233;DHT22;30969;51.052;17.056;2023-03-20T05:09:38;13.20;68.90
45233;DHT22;30969;51.052;17.056;2023-03-20T05:14:43;13.20;68.50
45233;DHT22;30969;51.052;17.056;2023-03-20T05:19:47;13.20;69.00
45233;DHT22;30969;51.052;17.056;2023-03-20T05:24:51;13.20;68.70
45233;DHT22;30969;51.052;17.056;2023-03-20T05:29:56;13.30;68.40
45233;DHT22;30969;51.052;17.056;2023-03-20T05:34:59;13.30;68.40
45233;DHT22;30969;51.052;17.056;2023-03-20T05:40:04;13.30;70.10
45233;DHT22;30969;51.052;17.056;2023-03-20T05:45:10;13.30;69.10
45233;DHT22;30969;51.052;17.056;2023-03-20T05:50:14;13.30;68.40
45233;DHT22;30969;51.052;17.056;2023-03-20T05:55:18;13.40;67.80
45233;DHT22;30969;51.052;17.056;2023-03-20T06:00:23;13.50;67.50
45233;DHT22;30969;51.052;17.056;2023-03-20T06:05:27;13.50;67.40
45233;DHT22;30969;51.052;17.056;2023-03-20T06:10:31;13.60;67.20
45233;DHT22;30969;51.052;17.056;2023-03-20T06:15:36;13.60;67.50
45233;DHT22;30969;51.052;17.056;2023-03-20T06:20:40;13.60;68.10
45233;DHT22;30969;51.052;17.056;2023-03-20T06:25:43;13.50;68.40
45233;DHT22;30969;51.052;17.056;2023-03-20T06:30:51;13.50;69.60
45233;DHT22;30969;51.052;17.056;2023-03-20T06:35:55;13.50;69.70
45233;DHT22;30969;51.052;17.056;2023-03-20T06:40:59;13.50;69.70
45233;DHT22;30969;51.052;17.056;2023-03-20T06:46:04;13.60;69.20
45233;DHT22;30969;51.052;17.056;2023-03-20T06:51:08;13.60;69.50
45233;DHT22;30969;51.052;17.056;2023-03-20T06:56:12;13.50;70.30
45233;DHT22;30969;51.052;17.056;2023-03-20T07:01:17;13.50;70.30
45233;DHT22;30969;51.052;17.056;2023-03-20T07:06:21;13.60;70.20
45233;DHT22;30969;51.052;17.056;2023-03-20T07:11:25;13.60;70.30
45233;DHT22;30969;51.052;17.056;2023-03-20T07:16:31;13.30;71.00
45233;DHT22;30969;51.052;17.056;2023-03-20T07:21:34;13.60;71.20
45233;DHT22;30969;51.052;17.056;2023-03-20T07:26:38;13.80;71.60
45233;DHT22;30969;51.052;17.056;2023-03-20T07:31:43;13.70;70.10
45233;DHT22;30969;51.052;17.056;2023-03-20T07:36:47;13.80;69.60
45233;DHT22;30969;51.052;17.056;2023-03-20T07:41:52;13.80;69.50
45233;DHT22;30969;51.052;17.056;2023-03-20T07:46:58;13.90;69.60
45233;DHT22;30969;51.052;17.056;2023-03-20T07:52:01;13.90;69.40
45233;DHT22;30969;51.052;17.056;2023-03-20T07:57:06;14.00;69.40
45233;DHT22;30969;51.052;17.056;2023-03-20T08:02:13;14.10;68.90
45233;DHT22;30969;51.052;17.056;2023-03-20T08:07:17;14.10;68.80
45233;DHT22;30969;51.052;17.056;2023-03-20T08:12:21;14.10;68.60
45233;DHT22;30969;51.052;17.056;2023-03-20T08:17:26;14.00;68.10
45233;DHT22;30969;51.052;17.056;2023-03-20T08:22:30;14.00;67.60
45233;DHT22;30969;51.052;17.056;2023-03-20T08:27:33;14.00;67.40
45233;DHT22;30969;51.052;17.056;2023-03-20T08:32:39;14.00;67.10
45233;DHT22;30969;51.052;17.056;2023-03-20T08:37:44;14.00;67.00
45233;DHT22;30969;51.052;17.056;2023-03-20T08:42:47;14.00;67.10
45233;DHT22;30969;51.052;17.056;2023-03-20T08:47:52;14.00;66.80
45233;DHT22;30969;51.052;17.056;2023-03-20T08:52:58;14.00;66.80
45233;DHT22;30969;51.052;17.056;2023-03-20T08:58:02;14.10;66.90
45233;DHT22;30969;51.052;17.056;2023-03-20T09:03:10;14.10;66.90
45233;DHT22;30969;51.052;17.056;2023-03-20T09:08:16;14.10;67.20
45233;DHT22;30969;51.052;17.056;2023-03-20T09:13:19;14.00;67.00
45233;DHT22;30969;51.052;17.056;2023-03-20T09:18:30;14.10;67.10
45233;DHT22;30969;51.052;17.056;2023-03-20T09:23:34;14.10;67.40
45233;DHT22;30969;51.052;17.056;2023-03-20T09:28:38;14.00;67.60
45233;DHT22;30969;51.052;17.056;2023-03-20T09:33:42;14.00;67.90
45233;DHT22;30969;51.052;17.056;2023-03-20T09:38:46;13.90;68.60
45233;DHT22;30969;51.052;17.056;2023-03-20T09:43:59;13.80;69.30
45233;DHT22;30969;51.052;17.056;2023-03-20T09:49:15;13.80;69.30
45233;DHT22;30969;51.052;17.056;2023-03-20T09:54:25;13.80;70.10
45233;DHT22;30969;51.052;17.056;2023-03-20T09:59:31;13.80;70.20
45233;DHT22;30969;51.052;17.056;2023-03-20T10:04:38;13.80;70.70
45233;DHT22;30969;51.052;17.056;2023-03-20T10:09:42;13.80;71.10
45233;DHT22;30969;51.052;17.056;2023-03-20T10:14:52;13.90;70.60
45233;DHT22;30969;51.052;17.056;2023-03-20T10:20:08;14.10;70.70
45233;DHT22;30969;51.052;17.056;2023-03-20T10:25:22;14.20;70.50
45233;DHT22;30969;51.052;17.056;2023-03-20T10:30:41;14.40;70.60
45233;DHT22;30969;51.052;17.056;2023-03-20T10:36:00;14.50;70.90
45233;DHT22;30969;51.052;17.056;2023-03-20T10:41:11;14.60;70.60
45233;DHT22;30969;51.052;17.056;2023-03-20T10:46:19;14.70;70.40
45233;DHT22;30969;51.052;17.056;2023-03-20T10:51:33;14.80;70.10
45233;DHT22;30969;51.052;17.056;2023-03-20T10:56:42;14.80;69.60
45233;DHT22;30969;51.052;17.056;2023-03-20T11:01:47;14.90;69.40
45233;DHT22;30969;51.052;17.056;2023-03-20T11:06:58;15.00;69.20
45233;DHT22;30969;51.052;17.056;2023-03-20T11:12:04;15.10;69.20
45233;DHT22;30969;51.052;17.056;2023-03-20T11:17:10;15.30;69.20
45233;DHT22;30969;51.052;17.056;2023-03-20T11:22:24;15.50;68.60
45233;DHT22;30969;51.052;17.056;2023-03-20T11:27:29;15.70;68.10
45233;DHT22;30969;51.052;17.056;2023-03-20T11:32:37;15.70;67.50
45233;DHT22;30969;51.052;17.056;2023-03-20T11:37:45;15.90;66.90
45233;DHT22;30969;51.052;17.056;2023-03-20T11:42:52;16.00;67.00
45233;DHT22;30969;51.052;17.056;2023-03-20T11:47:56;16.20;66.00
45233;DHT22;30969;51.052;17.056;2023-03-20T11:53:02;16.40;65.90
45233;DHT22;30969;51.052;17.056;2023-03-20T11:58:13;16.50;63.80
45233;DHT22;30969;51.052;17.056;2023-03-20T12:03:38;16.50;63.30
45233;DHT22;30969;51.052;17.056;2023-03-20T12:08:49;16.50;63.10
45233;DHT22;30969;51.052;17.056;2023-03-20T12:13:56;16.50;63.00
45233;DHT22;30969;51.052;17.056;2023-03-20T12:19:05;16.50;62.80
45233;DHT22;30969;51.052;17.056;2023-03-20T12:24:18;16.60;63.20
45233;DHT22;30969;51.052;17.056;2023-03-20T12:29:29;16.70;62.20
45233;DHT22;30969;51.052;17.056;2023-03-20T12:34:37;16.70;61.20
45233;DHT22;30969;51.052;17.056;2023-03-20T12:39:49;16.90;61.90
45233;DHT22;30969;51.052;17.056;2023-03-20T12:44:55;17.00;62.00
45233;DHT22;30969;51.052;17.056;2023-03-20T12:50:08;17.10;60.30
45233;DHT22;30969;51.052;17.056;2023-03-20T12:55:28;17.30;60.20
45233;DHT22;30969;51.052;17.056;2023-03-20T13:00:38;17.40;59.90
45233;DHT22;30969;51.052;17.056;2023-03-20T13:05:47;17.70;59.10
45233;DHT22;30969;51.052;17.056;2023-03-20T13:10:59;17.90;58.10
45233;DHT22;30969;51.052;17.056;2023-03-20T13:16:14;18.00;56.10
45233;DHT22;30969;51.052;17.056;2023-03-20T13:21:25;18.00;55.20
45233;DHT22;30969;51.052;17.056;2023-03-20T13:26:37;18.00;54.10
45233;DHT22;30969;51.052;17.056;2023-03-20T13:31:51;18.10;54.50
45233;DHT22;30969;51.052;17.056;2023-03-20T13:37:08;18.10;53.60
45233;DHT22;30969;51.052;17.056;2023-03-20T13:42:29;17.90;52.90
45233;DHT22;30969;51.052;17.056;2023-03-20T13:47:36;17.50;49.30
45233;DHT22;30969;51.052;17.056;2023-03-20T13:52:44;17.40;50.10
45233;DHT22;30969;51.052;17.056;2023-03-20T13:58:02;17.40;49.50
45233;DHT22;30969;51.052;17.056;2023-03-20T14:03:23;17.50;50.80
45233;DHT22;30969;51.052;17.056;2023-03-20T14:08:32;17.70;51.60
45233;DHT22;30969;51.052;17.056;2023-03-20T14:13:43;17.70;52.10
45233;DHT22;30969;51.052;17.056;2023-03-20T14:18:54;17.70;52.30
45233;DHT22;30969;51.052;17.056;2023-03-20T14:24:07;17.50;52.60
45233;DHT22;30969;51.052;17.056;2023-03-20T14:29:31;17.40;53.60
45233;DHT22;30969;51.052;17.056;2023-03-20T14:34:44;17.40;54.40
45233;DHT22;30969;51.052;17.056;2023-03-20T14:39:50;17.30;55.50
45233;DHT22;30969;51.052;17.056;2023-03-20T14:45:19;17.10;57.60
45233;DHT22;30969;51.052;17.056;2023-03-20T14:50:30;16.90;58.60
45233;DHT22;30969;51.052;17.056;2023-03-20T14:55:49;16.60;55.70
45233;DHT22;30969;51.052;17.056;2023-03-20T15:00:54;16.50;58.00
45233;DHT22;30969;51.052;17.056;2023-03-20T15:06:05;16.50;59.40
45233;DHT22;30969;51.052;17.056;2023-03-20T15:11:12;16.30;58.70
45233;DHT22;30969;51.052;17.056;2023-03-20T15:16:25;16.10;55.90
45233;DHT22;30969;51.052;17.056;2023-03-20T15:21:34;15.80;56.30
45233;DHT22;30969;51.052;17.056;2023-03-20T15:26:38;15.70;56.60
45233;DHT22;30969;51.052;17.056;2023-03-20T15:31:44;15.60;57.10
45233;DHT22;30969;51.052;17.056;2023-03-20T15:36:49;15.60;57.30
45233;DHT22;30969;51.052;17.056;2023-03-20T15:41:56;15.60;57.60
45233;DHT22;30969;51.052;17.056;2023-03-20T15:47:03;15.60;57.80
45233;DHT22;30969;51.052;17.056;2023-03-20T15:52:19;15.50;58.30
45233;DHT22;30969;51.052;17.056;2023-03-20T15:57:36;15.40;58.80
45233;DHT22;30969;51.052;17.056;2023-03-20T16:02:43;15.30;59.50
45233;DHT22;30969;51.052;17.056;2023-03-20T16:07:50;15.10;60.00
45233;DHT22;30969;51.052;17.056;2023-03-20T16:12:55;14.90;60.90
45233;DHT22;30969;51.052;17.056;2023-03-20T16:18:02;14.70;61.70
45233;DHT22;30969;51.052;17.056;2023-03-20T16:23:08;14.50;62.50
45233;DHT22;30969;51.052;17.056;2023-03-20T16:28:15;14.50;63.10
45233;DHT22;30969;51.052;17.056;2023-03-20T16:33:21;14.50;63.40
45233;DHT22;30969;51.052;17.056;2023-03-20T16:38:26;14.50;63.70
45233;DHT22;30969;51.052;17.056;2023-03-20T16:43:31;14.50;63.70
45233;DHT22;30969;51.052;17.056;2023-03-20T16:48:36;14.50;63.80
45233;DHT22;30969;51.052;17.056;2023-03-20T16:53:43;14.50;64.20
45233;DHT22;30969;51.052;17.056;2023-03-20T16:58:47;14.50;64.30
45233;DHT22;30969;51.052;17.056;2023-03-20T17:03:54;14.50;64.50
45233;DHT22;30969;51.052;17.056;2023-03-20T17:09:00;14.40;65.20
45233;DHT22;30969;51.052;17.056;2023-03-20T17:14:05;14.40;65.30
45233;DHT22;30969;51.052;17.056;2023-03-20T17:19:14;14.30;66.00
45233;DHT22;30969;51.052;17.056;2023-03-20T17:24:18;14.30;66.60
45233;DHT22;30969;51.052;17.056;2023-03-20T17:29:22;14.20;67.00
45233;DHT22;30969;51.052;17.056;2023-03-20T17:34:27;14.10;67.60
45233;DHT22;30969;51.052;17.056;2023-03-20T17:39:30;14.10;67.60
45233;DHT22;30969;51.052;17.056;2023-03-20T17:44:34;14.10;67.70
45233;DHT22;30969;51.052;17.056;2023-03-20T17:49:39;14.10;67.90
45233;DHT22;30969;51.052;17.056;2023-03-20T17:54:43;14.10;68.20
45233;DHT22;30969;51.052;17.056;2023-03-20T17:59:47;14.00;68.50
45233;DHT22;30969;51.052;17.056;2023-03-20T18:04:52;14.00;69.20
45233;DHT22;30969;51.052;17.056;2023-03-20T18:09:56;13.90;70.80
45233;DHT22;30969;51.052;17.056;2023-03-20T18:15:00;13.80;70.50
45233;DHT22;30969;51.052;17.056;2023-03-20T18:20:08;13.80;70.10
45233;DHT22;30969;51.052;17.056;2023-03-20T18:25:14;13.90;70.50
45233;DHT22;30969;51.052;17.056;2023-03-20T18:30:20;13.90;70.30
45233;DHT22;30969;51.052;17.056;2023-03-20T18:35:25;13.90;70.60
45233;DHT22;30969;51.052;17.056;2023-03-20T18:40:31;13.80;71.10
45233;DHT22;30969;51.052;17.056;2023-03-20T18:45:35;13.80;70.80
45233;DHT22;30969;51.052;17.056;2023-03-20T18:50:41;13.90;70.30
45233;DHT22;30969;51.052;17.056;2023-03-20T18:55:45;14.00;70.10
45233;DHT22;30969;51.052;17.056;2023-03-20T19:00:49;14.00;70.00
45233;DHT22;30969;51.052;17.056;2023-03-20T19:05:57;14.00;70.20
45233;DHT22;30969;51.052;17.056;2023-03-20T19:11:01;13.90;70.40
45233;DHT22;30969;51.052;17.056;2023-03-20T19:16:18;13.90;70.30
45233;DHT22;30969;51.052;17.056;2023-03-20T19:21:23;14.00;70.10
45233;DHT22;30969;51.052;17.056;2023-03-20T19:26:28;14.00;70.20
45233;DHT22;30969;51.052;17.056;2023-03-20T19:31:32;14.00;70.20
45233;DHT22;30969;51.052;17.056;2023-03-20T19:36:37;14.00;70.00
45233;DHT22;30969;51.052;17.056;2023-03-20T19:41:41;14.10;69.80
45233;DHT22;30969;51.052;17.056;2023-03-20T19:46:45;14.10;69.60
45233;DHT22;30969;51.052;17.056;2023-03-20T19:51:49;14.10;69.60
45233;DHT22;30969;51.052;17.056;2023-03-20T19:56:53;14.10;69.50
45233;DHT22;30969;51.052;17.056;2023-03-20T20:01:56;14.10;69.60
45233;DHT22;30969;51.052;17.056;2023-03-20T20:07:01;14.10;69.60
45233;DHT22;30969;51.052;17.056;2023-03-20T20:12:25;14.10;69.60
45233;DHT22;30969;51.052;17.056;2023-03-20T20:17:29;14.00;69.50
45233;DHT22;30969;51.052;17.056;2023-03-20T20:22:34;13.90;69.60
45233;DHT22;30969;51.052;17.056;2023-03-20T20:27:38;13.80;69.40
45233;DHT22;30969;51.052;17.056;2023-03-20T20:32:42;13.70;69.90
45233;DHT22;30969;51.052;17.056;2023-03-20T20:37:47;13.60;70.30
45233;DHT22;30969;51.052;17.056;2023-03-20T20:43:10;13.50;70.80
45233;DHT22;30969;51.052;17.056;2023-03-20T20:48:34;13.60;70.90
45233;DHT22;30969;51.052;17.056;2023-03-20T20:53:40;13.50;71.10
45233;DHT22;30969;51.052;17.056;2023-03-20T20:58:43;13.50;71.60
45233;DHT22;30969;51.052;17.056;2023-03-20T21:03:47;13.50;71.50
45233;DHT22;30969;51.052;17.056;2023-03-20T21:08:52;13.50;71.40
45233;DHT22;30969;51.052;17.056;2023-03-20T21:13:55;13.50;71.50
45233;DHT22;30969;51.052;17.056;2023-03-20T21:18:59;13.50;71.70
45233;DHT22;30969;51.052;17.056;2023-03-20T21:24:04;13.50;71.90
45233;DHT22;30969;51.052;17.056;2023-03-20T21:29:32;13.40;72.00
45233;DHT22;30969;51.052;17.056;2023-03-20T21:34:36;13.40;72.00
45233;DHT22;30969;51.052;17.056;2023-03-20T21:39:41;13.50;72.00
45233;DHT22;30969;51.052;17.056;2023-03-20T21:44:45;13.50;72.00
45233;DHT22;30969;51.052;17.056;2023-03-20T21:50:10;13.50;72.00
45233;DHT22;30969;51.052;17.056;2023-03-20T21:55:35;13.40;72.00
45233;DHT22;30969;51.052;17.056;2023-03-20T22:00:59;13.40;72.00
45233;DHT22;30969;51.052;17.056;2023-03-20T22:06:22;13.50;71.80
45233;DHT22;30969;51.052;17.056;2023-03-20T22:11:47;13.50;71.60
45233;DHT22;30969;51.052;17.056;2023-03-20T22:17:11;13.50;71.50
45233;DHT22;30969;51.052;17.056;2023-03-20T22:22:34;13.60;71.20
45233;DHT22;30969;51.052;17.056;2023-03-20T22:27:59;13.60;70.90
45233;DHT22;30969;51.052;17.056;2023-03-20T22:33:23;13.60;70.90
45233;DHT22;30969;51.052;17.056;2023-03-20T22:38:47;13.60;70.80
45233;DHT22;30969;51.052;17.056;2023-03-20T22:44:12;13.60;70.50
45233;DHT22;30969;51.052;17.056;2023-03-20T22:49:36;13.70;70.50
45233;DHT22;30969;51.052;17.056;2023-03-20T22:54:39;13.60;71.30
45233;DHT22;30969;51.052;17.056;2023-03-20T22:59:44;13.60;70.30
45233;DHT22;30969;51.052;17.056;2023-03-20T23:04:47;13.60;70.40
45233;DHT22;30969;51.052;17.056;2023-03-20T23:09:53;13.70;70.50
45233;DHT22;30969;51.052;17.056;2023-03-20T23:14:58;13.70;70.60
45233;DHT22;30969;51.052;17.056;2023-03-20T23:20:03;13.70;70.70
45233;DHT22;30969;51.052;17.056;2023-03-20T23:25:14;13.70;70.70
45233;DHT22;30969;51.052;17.056;2023-03-20T23:30:39;13.70;70.80
45233;DHT22;30969;51.052;17.056;2023-03-20T23:35:56;13.60;70.80
45233;DHT22;30969;51.052;17.056;2023-03-20T23:41:17;13.70;70.90
45233;DHT22;30969;51.052;17.056;2023-03-20T23:46:22;13.70;71.00
45233;DHT22;30969;51.052;17.056;2023-03-20T23:51:26;13.70;71.20
45233;DHT22;30969;51.052;17.056;2023-03-20T23:56:29;13.70;71.40
